sensor_id;sensor_type;location;lat;lon;timestamp;pressure;altitude;pressure_sealevel;temperature;humidity
14041;BME280;7095;51.388;6.196;2022-12-07T00:01:45;103569.44;;;-145.32;100.00
14041;BME280;7095;51.388;6.196;2022-12-07T00:04:16;103827.66;;;-145.32;100.00
14041;BME280;7095;51.388;6.196;2022-12-07T00:06:46;103569.44;;;-145.32;100.00
14041;BME280;7095;51.388;6.196;2022-12-07T00:09:17;104085.91;;;-145.32;100.00
14041;BME280;7095;51.388;6.196;2022-12-07T00:11:49;104602.44;;;-145.32;100.00
14041;BME280;7095;51.388;6.196;2022-12-07T00:14:18;104602.44;;;-145.32;100.00
14041;BME280;7095;51.388;6.196;2022-12-07T00:16:49;104344.16;;;-145.32;100.00
14041;BME280;7095;51.388;6.196;2022-12-07T00:19:18;104602.44;;;-145.32;100.00
14041;BME280;7095;51.388;6.196;2022-12-07T00:21:46;104602.44;;;-145.32;100.00
14041;BME280;7095;51.388;6.196;2022-12-07T00:24:16;104602.44;;;-145.32;100.00
14041;BME280;7095;51.388;6.196;2022-12-07T00:26:45;104602.44;;;-145.32;100.00
14041;BME280;7095;51.388;6.196;2022-12-07T00:29:17;104602.44;;;-145.32;100.00
14041;BME280;7095;51.388;6.196;2022-12-07T00:31:46;104344.16;;;-145.32;100.00
14041;BME280;7095;51.388;6.196;2022-12-07T00:34:17;104344.16;;;-145.32;100.00
14041;BME280;7095;51.388;6.196;2022-12-07T00:36:47;104085.91;;;-145.32;100.00
14041;BME280;7095;51.388;6.196;2022-12-07T00:39:17;103827.66;;;-145.32;100.00
14041;BME280;7095;51.388;6.196;2022-12-07T00:41:45;103827.66;;;-145.32;100.00
14041;BME280;7095;51.388;6.196;2022-12-07T00:44:13;103311.25;;;-145.32;100.00
14041;BME280;7095;51.388;6.196;2022-12-07T00:46:42;103311.25;;;-145.32;100.00
14041;BME280;7095;51.388;6.196;2022-12-07T00:49:12;103569.44;;;-145.32;100.00
14041;BME280;7095;51.388;6.196;2022-12-07T00:51:40;103827.66;;;-145.32;100.00
14041;BME280;7095;51.388;6.196;2022-12-07T00:54:09;103827.66;;;-145.32;100.00
14041;BME280;7095;51.388;6.196;2022-12-07T00:56:39;103569.44;;;-145.32;100.00
14041;BME280;7095;51.388;6.196;2022-12-07T00:59:12;103569.44;;;-145.32;100.00
14041;BME280;7095;51.388;6.196;2022-12-07T01:01:41;103569.44;;;-145.32;100.00
14041;BME280;7095;51.388;6.196;2022-12-07T01:04:10;103827.66;;;-145.32;100.00
14041;BME280;7095;51.388;6.196;2022-12-07T01:06:38;104085.91;;;-145.32;100.00
14041;BME280;7095;51.388;6.196;2022-12-07T01:09:07;104344.16;;;-145.32;100.00
14041;BME280;7095;51.388;6.196;2022-12-07T01:12:06;104344.16;;;-145.32;100.00
14041;BME280;7095;51.388;6.196;2022-12-07T01:14:35;104344.16;;;-145.32;100.00
14041;BME280;7095;51.388;6.196;2022-12-07T01:17:04;104344.16;;;-145.32;100.00
14041;BME280;7095;51.388;6.196;2022-12-07T01:19:32;104344.16;;;-145.32;100.00
14041;BME280;7095;51.388;6.196;2022-12-07T01:22:01;104344.16;;;-145.32;100.00
14041;BME280;7095;51.388;6.196;2022-12-07T01:24:29;104344.16;;;-145.32;100.00
14041;BME280;7095;51.388;6.196;2022-12-07T01:26:58;104344.16;;;-145.32;100.00
14041;BME280;7095;51.388;6.196;2022-12-07T01:29:28;104085.91;;;-145.32;100.00
14041;BME280;7095;51.388;6.196;2022-12-07T01:31:57;104085.91;;;-145.32;100.00
14041;BME280;7095;51.388;6.196;2022-12-07T01:34:25;104085.91;;;-145.32;100.00
14041;BME280;7095;51.388;6.196;2022-12-07T01:36:54;104602.44;;;-145.32;100.00
14041;BME280;7095;51.388;6.196;2022-12-07T01:39:22;104344.16;;;-145.32;100.00
14041;BME280;7095;51.388;6.196;2022-12-07T01:41:51;104085.91;;;-145.32;100.00
14041;BME280;7095;51.388;6.196;2022-12-07T01:44:22;103827.66;;;-145.32;100.00
14041;BME280;7095;51.388;6.196;2022-12-07T01:46:53;104085.91;;;-145.32;100.00
14041;BME280;7095;51.388;6.196;2022-12-07T01:49:29;104085.91;;;-145.32;100.00
14041;BME280;7095;51.388;6.196;2022-12-07T01:52:11;104602.44;;;-145.32;100.00
14041;BME280;7095;51.388;6.196;2022-12-07T01:54:42;105635.72;;;-145.32;100.00
14041;BME280;7095;51.388;6.196;2022-12-07T01:57:13;105635.72;;;-145.32;100.00
14041;BME280;7095;51.388;6.196;2022-12-07T01:59:45;105377.34;;;-145.32;100.00
14041;BME280;7095;51.388;6.196;2022-12-07T02:02:18;105119.03;;;-145.32;100.00
14041;BME280;7095;51.388;6.196;2022-12-07T02:04:49;105119.03;;;-145.32;100.00
14041;BME280;7095;51.388;6.196;2022-12-07T02:07:19;105119.03;;;-145.32;100.00
14041;BME280;7095;51.388;6.196;2022-12-07T02:09:48;104860.72;;;-145.32;100.00
14041;BME280;7095;51.388;6.196;2022-12-07T02:12:16;104602.44;;;-145.32;100.00
14041;BME280;7095;51.388;6.196;2022-12-07T02:14:45;104344.16;;;-145.32;100.00
14041;BME280;7095;51.388;6.196;2022-12-07T02:17:21;104344.16;;;-145.32;100.00
14041;BME280;7095;51.388;6.196;2022-12-07T02:20:10;104344.16;;;-145.32;100.00
14041;BME280;7095;51.388;6.196;2022-12-07T02:23:19;104085.91;;;-145.32;100.00
14041;BME280;7095;51.388;6.196;2022-12-07T02:26:02;104085.91;;;-145.32;100.00
14041;BME280;7095;51.388;6.196;2022-12-07T02:29:04;104860.72;;;-145.32;100.00
14041;BME280;7095;51.388;6.196;2022-12-07T02:31:43;105377.34;;;-145.32;100.00
14041;BME280;7095;51.388;6.196;2022-12-07T02:34:19;106410.88;;;-145.32;100.00
14041;BME280;7095;51.388;6.196;2022-12-07T02:36:54;106410.88;;;-145.32;100.00
14041;BME280;7095;51.388;6.196;2022-12-07T02:39:29;106410.88;;;-145.32;100.00
14041;BME280;7095;51.388;6.196;2022-12-07T02:42:01;106669.31;;;-145.32;100.00
14041;BME280;7095;51.388;6.196;2022-12-07T02:44:34;106152.47;;;-145.32;100.00
14041;BME280;7095;51.388;6.196;2022-12-07T02:47:05;105894.09;;;-145.32;100.00
14041;BME280;7095;51.388;6.196;2022-12-07T02:49:36;105635.72;;;-145.32;100.00
14041;BME280;7095;51.388;6.196;2022-12-07T02:52:07;106152.47;;;-145.32;100.00
14041;BME280;7095;51.388;6.196;2022-12-07T02:54:35;106152.47;;;-145.32;100.00
14041;BME280;7095;51.388;6.196;2022-12-07T02:57:13;106410.88;;;-145.32;100.00
14041;BME280;7095;51.388;6.196;2022-12-07T02:59:59;106669.31;;;-145.32;100.00
14041;BME280;7095;51.388;6.196;2022-12-07T03:02:38;106669.31;;;-145.32;100.00
14041;BME280;7095;51.388;6.196;2022-12-07T03:08:04;106410.88;;;-145.32;100.00
14041;BME280;7095;51.388;6.196;2022-12-07T03:10:41;106410.88;;;-145.32;100.00
14041;BME280;7095;51.388;6.196;2022-12-07T03:13:20;106410.88;;;-145.32;100.00
14041;BME280;7095;51.388;6.196;2022-12-07T03:15:56;106152.47;;;-145.32;100.00
14041;BME280;7095;51.388;6.196;2022-12-07T03:18:30;105635.72;;;-145.32;100.00
14041;BME280;7095;51.388;6.196;2022-12-07T03:21:04;105377.34;;;-145.32;100.00
14041;BME280;7095;51.388;6.196;2022-12-07T03:23:35;104860.72;;;-145.32;100.00
14041;BME280;7095;51.388;6.196;2022-12-07T03:26:09;104085.91;;;-145.32;100.00
14041;BME280;7095;51.388;6.196;2022-12-07T03:28:43;104085.91;;;-145.32;100.00
14041;BME280;7095;51.388;6.196;2022-12-07T03:31:18;103311.25;;;-145.32;100.00
14041;BME280;7095;51.388;6.196;2022-12-07T03:33:50;103569.44;;;-145.32;100.00
14041;BME280;7095;51.388;6.196;2022-12-07T03:36:24;103827.66;;;-145.32;100.00
14041;BME280;7095;51.388;6.196;2022-12-07T03:38:57;104085.91;;;-145.32;100.00
14041;BME280;7095;51.388;6.196;2022-12-07T03:41:31;104860.72;;;-145.32;100.00
14041;BME280;7095;51.388;6.196;2022-12-07T03:44:10;104602.44;;;-145.32;100.00
14041;BME280;7095;51.388;6.196;2022-12-07T03:46:45;104344.16;;;-145.32;100.00
14041;BME280;7095;51.388;6.196;2022-12-07T03:49:21;103827.66;;;-145.32;100.00
14041;BME280;7095;51.388;6.196;2022-12-07T03:51:56;103569.44;;;-145.32;100.00
14041;BME280;7095;51.388;6.196;2022-12-07T03:54:32;103569.44;;;-145.32;100.00
14041;BME280;7095;51.388;6.196;2022-12-07T03:57:02;103827.66;;;-145.32;100.00
14041;BME280;7095;51.388;6.196;2022-12-07T03:59:32;103827.66;;;-145.32;100.00
14041;BME280;7095;51.388;6.196;2022-12-07T04:02:05;103569.44;;;-145.32;100.00
14041;BME280;7095;51.388;6.196;2022-12-07T04:04:35;104085.91;;;-145.32;100.00
14041;BME280;7095;51.388;6.196;2022-12-07T04:07:03;104344.16;;;-145.32;100.00
14041;BME280;7095;51.388;6.196;2022-12-07T04:09:32;104344.16;;;-145.32;100.00
14041;BME280;7095;51.388;6.196;2022-12-07T04:12:00;104602.44;;;-145.32;100.00
14041;BME280;7095;51.388;6.196;2022-12-07T04:14:28;104602.44;;;-145.32;100.00
14041;BME280;7095;51.388;6.196;2022-12-07T04:16:58;104344.16;;;-145.32;100.00
14041;BME280;7095;51.388;6.196;2022-12-07T04:19:30;104344.16;;;-145.32;100.00
14041;BME280;7095;51.388;6.196;2022-12-07T04:22:02;104344.16;;;-145.32;100.00
14041;BME280;7095;51.388;6.196;2022-12-07T04:24:32;104085.91;;;-145.32;100.00
14041;BME280;7095;51.388;6.196;2022-12-07T04:27:02;104085.91;;;-145.32;100.00
14041;BME280;7095;51.388;6.196;2022-12-07T04:29:31;103827.66;;;-145.32;100.00
14041;BME280;7095;51.388;6.196;2022-12-07T04:31:59;103569.44;;;-145.32;100.00
14041;BME280;7095;51.388;6.196;2022-12-07T04:34:29;103569.44;;;-145.32;100.00
14041;BME280;7095;51.388;6.196;2022-12-07T04:36:58;103569.44;;;-145.32;100.00
14041;BME280;7095;51.388;6.196;2022-12-07T04:39:28;103569.44;;;-145.32;100.00
14041;BME280;7095;51.388;6.196;2022-12-07T04:41:57;103827.66;;;-145.32;100.00
14041;BME280;7095;51.388;6.196;2022-12-07T04:44:27;103569.44;;;-145.32;100.00
14041;BME280;7095;51.388;6.196;2022-12-07T04:46:56;103569.44;;;-145.32;100.00
14041;BME280;7095;51.388;6.196;2022-12-07T04:49:25;103569.44;;;-145.32;100.00
14041;BME280;7095;51.388;6.196;2022-12-07T04:51:55;103827.66;;;-145.32;100.00
14041;BME280;7095;51.388;6.196;2022-12-07T04:54:24;103569.44;;;-145.32;100.00
14041;BME280;7095;51.388;6.196;2022-12-07T04:56:52;103569.44;;;-145.32;100.00
14041;BME280;7095;51.388;6.196;2022-12-07T04:59:20;103311.25;;;-145.32;100.00
14041;BME280;7095;51.388;6.196;2022-12-07T05:01:49;103311.25;;;-145.32;100.00
14041;BME280;7095;51.388;6.196;2022-12-07T05:04:18;103311.25;;;-145.32;100.00
14041;BME280;7095;51.388;6.196;2022-12-07T05:06:46;102794.91;;;-145.32;100.00
14041;BME280;7095;51.388;6.196;2022-12-07T05:09:16;102794.91;;;-145.32;100.00
14041;BME280;7095;51.388;6.196;2022-12-07T05:11:45;103053.06;;;-145.32;100.00
14041;BME280;7095;51.388;6.196;2022-12-07T05:14:15;103053.06;;;-145.32;100.00
14041;BME280;7095;51.388;6.196;2022-12-07T05:16:46;103311.25;;;-145.32;100.00
14041;BME280;7095;51.388;6.196;2022-12-07T05:19:16;103827.66;;;-145.32;100.00
14041;BME280;7095;51.388;6.196;2022-12-07T05:21:45;104344.16;;;-145.32;100.00
14041;BME280;7095;51.388;6.196;2022-12-07T05:24:16;104344.16;;;-145.32;100.00
14041;BME280;7095;51.388;6.196;2022-12-07T05:26:44;104344.16;;;-145.32;100.00
14041;BME280;7095;51.388;6.196;2022-12-07T05:29:15;104344.16;;;-145.32;100.00
14041;BME280;7095;51.388;6.196;2022-12-07T05:31:44;104344.16;;;-145.32;100.00
14041;BME280;7095;51.388;6.196;2022-12-07T05:34:13;104602.44;;;-145.32;100.00
14041;BME280;7095;51.388;6.196;2022-12-07T05:36:42;104602.44;;;-145.32;100.00
14041;BME280;7095;51.388;6.196;2022-12-07T05:39:10;104344.16;;;-145.32;100.00
14041;BME280;7095;51.388;6.196;2022-12-07T05:41:40;104344.16;;;-145.32;100.00
14041;BME280;7095;51.388;6.196;2022-12-07T05:44:26;104344.16;;;-145.32;100.00
14041;BME280;7095;51.388;6.196;2022-12-07T05:46:54;104602.44;;;-145.32;100.00
14041;BME280;7095;51.388;6.196;2022-12-07T05:49:23;104344.16;;;-145.32;100.00
14041;BME280;7095;51.388;6.196;2022-12-07T05:51:51;104085.91;;;-145.32;100.00
14041;BME280;7095;51.388;6.196;2022-12-07T05:54:20;104085.91;;;-145.32;100.00
14041;BME280;7095;51.388;6.196;2022-12-07T05:56:50;103569.44;;;-145.32;100.00
14041;BME280;7095;51.388;6.196;2022-12-07T05:59:18;103569.44;;;-145.32;100.00
14041;BME280;7095;51.388;6.196;2022-12-07T06:01:54;103311.25;;;-145.32;100.00
14041;BME280;7095;51.388;6.196;2022-12-07T06:04:24;103053.06;;;-145.32;100.00
14041;BME280;7095;51.388;6.196;2022-12-07T06:06:53;102536.75;;;-145.32;100.00
14041;BME280;7095;51.388;6.196;2022-12-07T06:09:22;102278.66;;;-145.32;100.00
14041;BME280;7095;51.388;6.196;2022-12-07T06:11:53;102278.66;;;-145.32;100.00
14041;BME280;7095;51.388;6.196;2022-12-07T06:14:39;102020.53;;;-145.32;100.00
14041;BME280;7095;51.388;6.196;2022-12-07T06:17:08;101762.47;;;-145.32;100.00
14041;BME280;7095;51.388;6.196;2022-12-07T06:19:36;101504.38;;;-145.32;100.00
14041;BME280;7095;51.388;6.196;2022-12-07T06:22:06;100988.31;;;-145.32;100.00
14041;BME280;7095;51.388;6.196;2022-12-07T06:24:36;101762.47;;;-145.32;100.00
14041;BME280;7095;51.388;6.196;2022-12-07T06:27:06;102020.53;;;-145.32;100.00
14041;BME280;7095;51.388;6.196;2022-12-07T06:29:34;102020.53;;;-145.32;100.00
14041;BME280;7095;51.388;6.196;2022-12-07T06:32:04;102020.53;;;-145.32;100.00
14041;BME280;7095;51.388;6.196;2022-12-07T06:34:33;102020.53;;;-145.32;100.00
14041;BME280;7095;51.388;6.196;2022-12-07T06:37:01;101762.47;;;-145.32;100.00
14041;BME280;7095;51.388;6.196;2022-12-07T06:39:30;102278.66;;;-145.32;100.00
14041;BME280;7095;51.388;6.196;2022-12-07T06:41:59;102794.91;;;-145.32;100.00
14041;BME280;7095;51.388;6.196;2022-12-07T06:44:29;102794.91;;;-145.32;100.00
14041;BME280;7095;51.388;6.196;2022-12-07T06:46:57;102536.75;;;-145.32;100.00
14041;BME280;7095;51.388;6.196;2022-12-07T06:49:45;102536.75;;;-145.32;100.00
14041;BME280;7095;51.388;6.196;2022-12-07T06:52:14;102278.66;;;-145.32;100.00
14041;BME280;7095;51.388;6.196;2022-12-07T06:54:42;102278.66;;;-145.32;100.00
14041;BME280;7095;51.388;6.196;2022-12-07T06:57:12;101762.47;;;-145.32;100.00
14041;BME280;7095;51.388;6.196;2022-12-07T06:59:41;101246.34;;;-145.32;100.00
14041;BME280;7095;51.388;6.196;2022-12-07T07:02:10;101246.34;;;-145.32;100.00
14041;BME280;7095;51.388;6.196;2022-12-07T07:04:39;101246.34;;;-145.32;100.00
14041;BME280;7095;51.388;6.196;2022-12-07T07:07:08;101762.47;;;-145.32;100.00
14041;BME280;7095;51.388;6.196;2022-12-07T07:09:36;101504.38;;;-145.32;100.00
14041;BME280;7095;51.388;6.196;2022-12-07T07:12:05;101246.34;;;-145.32;100.00
14041;BME280;7095;51.388;6.196;2022-12-07T07:14:33;100988.31;;;-145.32;100.00
14041;BME280;7095;51.388;6.196;2022-12-07T07:17:04;100988.31;;;-145.32;100.00
14041;BME280;7095;51.388;6.196;2022-12-07T07:19:32;101246.34;;;-145.32;100.00
14041;BME280;7095;51.388;6.196;2022-12-07T07:22:00;100730.31;;;-145.32;100.00
14041;BME280;7095;51.388;6.196;2022-12-07T07:24:29;100988.31;;;-145.32;100.00
14041;BME280;7095;51.388;6.196;2022-12-07T07:26:57;100988.31;;;-145.32;100.00
14041;BME280;7095;51.388;6.196;2022-12-07T07:29:26;102020.53;;;-145.32;100.00
14041;BME280;7095;51.388;6.196;2022-12-07T07:31:55;101762.47;;;-145.32;100.00
14041;BME280;7095;51.388;6.196;2022-12-07T07:34:32;101762.47;;;-145.32;100.00
14041;BME280;7095;51.388;6.196;2022-12-07T07:37:01;102278.66;;;-145.32;100.00
14041;BME280;7095;51.388;6.196;2022-12-07T07:39:29;102794.91;;;-145.32;100.00
14041;BME280;7095;51.388;6.196;2022-12-07T07:41:58;102536.75;;;-145.32;100.00
14041;BME280;7095;51.388;6.196;2022-12-07T07:44:27;102536.75;;;-145.32;100.00
14041;BME280;7095;51.388;6.196;2022-12-07T07:47:01;102794.91;;;-145.32;100.00
14041;BME280;7095;51.388;6.196;2022-12-07T07:49:32;103053.06;;;-145.32;100.00
14041;BME280;7095;51.388;6.196;2022-12-07T07:52:00;103311.25;;;-145.32;100.00
14041;BME280;7095;51.388;6.196;2022-12-07T07:54:29;103311.25;;;-145.32;100.00
14041;BME280;7095;51.388;6.196;2022-12-07T07:56:57;103311.25;;;-145.32;100.00
14041;BME280;7095;51.388;6.196;2022-12-07T07:59:26;102536.75;;;-145.32;100.00
14041;BME280;7095;51.388;6.196;2022-12-07T08:01:54;102278.66;;;-145.32;100.00
14041;BME280;7095;51.388;6.196;2022-12-07T08:04:23;102278.66;;;-145.32;100.00
14041;BME280;7095;51.388;6.196;2022-12-07T08:06:56;102278.66;;;-145.32;100.00
14041;BME280;7095;51.388;6.196;2022-12-07T08:09:25;102536.75;;;-145.32;100.00
14041;BME280;7095;51.388;6.196;2022-12-07T08:11:53;102536.75;;;-145.32;100.00
14041;BME280;7095;51.388;6.196;2022-12-07T08:14:22;102794.91;;;-145.32;100.00
14041;BME280;7095;51.388;6.196;2022-12-07T08:16:50;103053.06;;;-145.32;100.00
14041;BME280;7095;51.388;6.196;2022-12-07T08:19:19;102794.91;;;-145.32;100.00
14041;BME280;7095;51.388;6.196;2022-12-07T08:21:49;102794.91;;;-145.32;100.00
14041;BME280;7095;51.388;6.196;2022-12-07T08:24:19;102536.75;;;-145.32;100.00
14041;BME280;7095;51.388;6.196;2022-12-07T08:26:47;103053.06;;;-145.32;100.00
14041;BME280;7095;51.388;6.196;2022-12-07T08:29:17;103311.25;;;-145.32;100.00
14041;BME280;7095;51.388;6.196;2022-12-07T08:31:46;103053.06;;;-145.32;100.00
14041;BME280;7095;51.388;6.196;2022-12-07T08:34:14;103053.06;;;-145.32;100.00
14041;BME280;7095;51.388;6.196;2022-12-07T08:36:43;103311.25;;;-145.32;100.00
14041;BME280;7095;51.388;6.196;2022-12-07T08:39:11;103311.25;;;-145.32;100.00
14041;BME280;7095;51.388;6.196;2022-12-07T08:41:59;103569.44;;;-145.32;100.00
14041;BME280;7095;51.388;6.196;2022-12-07T08:44:28;103827.66;;;-145.32;100.00
14041;BME280;7095;51.388;6.196;2022-12-07T08:47:00;104085.91;;;-145.32;100.00
14041;BME280;7095;51.388;6.196;2022-12-07T08:49:33;104085.91;;;-145.32;100.00
14041;BME280;7095;51.388;6.196;2022-12-07T08:52:04;104085.91;;;-145.32;100.00
14041;BME280;7095;51.388;6.196;2022-12-07T08:54:34;104085.91;;;-145.32;100.00
14041;BME280;7095;51.388;6.196;2022-12-07T08:57:07;103827.66;;;-145.32;100.00
14041;BME280;7095;51.388;6.196;2022-12-07T08:59:37;103053.06;;;-145.32;100.00
14041;BME280;7095;51.388;6.196;2022-12-07T09:02:06;102794.91;;;-145.32;100.00
14041;BME280;7095;51.388;6.196;2022-12-07T09:04:34;103053.06;;;-145.32;100.00
14041;BME280;7095;51.388;6.196;2022-12-07T09:07:03;103569.44;;;-145.32;100.00
14041;BME280;7095;51.388;6.196;2022-12-07T09:09:33;104085.91;;;-145.32;100.00
14041;BME280;7095;51.388;6.196;2022-12-07T09:12:02;104344.16;;;-145.32;100.00
14041;BME280;7095;51.388;6.196;2022-12-07T09:14:32;104085.91;;;-145.32;100.00
14041;BME280;7095;51.388;6.196;2022-12-07T09:17:08;104085.91;;;-145.32;100.00
14041;BME280;7095;51.388;6.196;2022-12-07T09:19:37;103053.06;;;-145.32;100.00
14041;BME280;7095;51.388;6.196;2022-12-07T09:22:05;103053.06;;;-145.32;100.00
14041;BME280;7095;51.388;6.196;2022-12-07T09:24:34;103053.06;;;-145.32;100.00
14041;BME280;7095;51.388;6.196;2022-12-07T09:27:03;103569.44;;;-145.32;100.00
14041;BME280;7095;51.388;6.196;2022-12-07T09:29:33;103311.25;;;-145.32;100.00
14041;BME280;7095;51.388;6.196;2022-12-07T09:32:01;102536.75;;;-145.32;100.00
14041;BME280;7095;51.388;6.196;2022-12-07T09:34:37;101246.34;;;-145.32;100.00
14041;BME280;7095;51.388;6.196;2022-12-07T09:37:06;100730.31;;;-145.32;100.00
14041;BME280;7095;51.388;6.196;2022-12-07T09:39:37;99956.41;;;-145.32;100.00
14041;BME280;7095;51.388;6.196;2022-12-07T09:42:26;98666.94;;;-145.32;100.00
14041;BME280;7095;51.388;6.196;2022-12-07T09:44:58;98409.13;;;-145.32;100.00
14041;BME280;7095;51.388;6.196;2022-12-07T09:47:27;96089.47;;;-145.32;100.00
14041;BME280;7095;51.388;6.196;2022-12-07T09:50:00;95831.81;;;-145.32;100.00
14041;BME280;7095;51.388;6.196;2022-12-07T09:52:32;96347.13;;;-145.32;100.00
14041;BME280;7095;51.388;6.196;2022-12-07T09:55:11;91969.47;;;-145.32;100.00
14041;BME280;7095;51.388;6.196;2022-12-07T09:57:40;91454.81;;;-145.32;100.00
14041;BME280;7095;51.388;6.196;2022-12-07T10:00:14;90682.97;;;-145.32;100.00
14041;BME280;7095;51.388;6.196;2022-12-07T10:02:44;87597.34;;;-145.32;100.00
14041;BME280;7095;51.388;6.196;2022-12-07T10:05:16;90682.97;;;-145.32;100.00
14041;BME280;7095;51.388;6.196;2022-12-07T10:07:50;89911.31;;;-145.32;100.00
14041;BME280;7095;51.388;6.196;2022-12-07T10:10:23;85798.66;;;-145.32;100.00
14041;BME280;7095;51.388;6.196;2022-12-07T10:12:55;85798.66;;;-145.32;100.00
14041;BME280;7095;51.388;6.196;2022-12-07T10:15:45;86569.41;;;-145.32;100.00
14041;BME280;7095;51.388;6.196;2022-12-07T10:18:21;86312.47;;;-145.32;100.00
14041;BME280;7095;51.388;6.196;2022-12-07T10:21:01;85028.06;;;-145.32;100.00
14041;BME280;7095;51.388;6.196;2022-12-07T10:23:30;83487.44;;;-145.32;100.00
14041;BME280;7095;51.388;6.196;2022-12-07T10:25:59;83744.16;;;-145.32;100.00
14041;BME280;7095;51.388;6.196;2022-12-07T10:28:34;84771.25;;;-145.32;100.00
14041;BME280;7095;51.388;6.196;2022-12-07T10:31:17;85028.06;;;-145.32;100.00
14041;BME280;7095;51.388;6.196;2022-12-07T10:33:49;80921.25;;;-145.32;100.00
14041;BME280;7095;51.388;6.196;2022-12-07T10:36:22;82717.38;;;-145.32;100.00
14041;BME280;7095;51.388;6.196;2022-12-07T10:38:53;81690.91;;;-145.32;100.00
14041;BME280;7095;51.388;6.196;2022-12-07T10:41:27;82717.38;;;-145.32;100.00
14041;BME280;7095;51.388;6.196;2022-12-07T10:43:56;82717.38;;;-145.32;100.00
14041;BME280;7095;51.388;6.196;2022-12-07T10:46:45;83487.44;;;-145.32;100.00
14041;BME280;7095;51.388;6.196;2022-12-07T10:52:32;86055.56;;;-145.32;100.00
14041;BME280;7095;51.388;6.196;2022-12-07T10:55:16;86312.47;;;-145.32;100.00
14041;BME280;7095;51.388;6.196;2022-12-07T10:58:05;83230.72;;;-145.32;100.00
14041;BME280;7095;51.388;6.196;2022-12-07T11:00:44;80151.75;;;-145.32;100.00
14041;BME280;7095;51.388;6.196;2022-12-07T11:03:39;77844.31;;;-145.32;100.00
14041;BME280;7095;51.388;6.196;2022-12-07T11:06:17;76819.28;;;-145.32;100.00
14041;BME280;7095;51.388;6.196;2022-12-07T11:09:00;76050.72;;;-145.32;100.00
14041;BME280;7095;51.388;6.196;2022-12-07T11:11:34;74514.09;;;-145.32;100.00
14041;BME280;7095;51.388;6.196;2022-12-07T11:14:13;73234.09;;;-145.32;100.00
14041;BME280;7095;51.388;6.196;2022-12-07T11:16:56;72210.47;;;-145.32;100.00
14041;BME280;7095;51.388;6.196;2022-12-07T11:20:01;74258.06;;;-145.32;100.00
14041;BME280;7095;51.388;6.196;2022-12-07T11:22:36;73490.06;;;-145.32;100.00
14041;BME280;7095;51.388;6.196;2022-12-07T11:25:18;78100.63;;;-145.32;100.00
14041;BME280;7095;51.388;6.196;2022-12-07T11:28:03;80664.72;;;-145.32;100.00
14041;BME280;7095;51.388;6.196;2022-12-07T11:30:40;81690.91;;;-145.32;100.00
14041;BME280;7095;51.388;6.196;2022-12-07T11:33:15;75026.22;;;-145.32;100.00
14041;BME280;7095;51.388;6.196;2022-12-07T11:36:00;70283.94;;;-145.32;100.00
14041;BME280;7095;51.388;6.196;2022-12-07T11:38:37;67502.03;;;-145.32;100.00
14041;BME280;7095;51.388;6.196;2022-12-07T11:41:10;70154.09;;;-145.32;100.00
14041;BME280;7095;51.388;6.196;2022-12-07T11:43:56;67959.19;;;-145.32;100.00
14041;BME280;7095;51.388;6.196;2022-12-07T11:46:33;64126.00;;;-145.32;100.00
14041;BME280;7095;51.388;6.196;2022-12-07T11:49:10;63178.84;;;-145.32;100.00
14041;BME280;7095;51.388;6.196;2022-12-07T11:51:44;62696.41;;;-145.32;100.00
14041;BME280;7095;51.388;6.196;2022-12-07T11:54:19;64487.00;;;-145.32;100.00
14041;BME280;7095;51.388;6.196;2022-12-07T11:56:50;63312.44;;;-145.32;100.00
14041;BME280;7095;51.388;6.196;2022-12-07T11:59:23;63007.41;;;-145.32;100.00
14041;BME280;7095;51.388;6.196;2022-12-07T12:02:07;63180.84;;;-145.32;100.00
14041;BME280;7095;51.388;6.196;2022-12-07T12:04:49;61245.47;;;-145.32;100.00
14041;BME280;7095;51.388;6.196;2022-12-07T12:07:23;61496.56;;;-145.32;100.00
14041;BME280;7095;51.388;6.196;2022-12-07T12:10:19;62425.31;;;-145.32;100.00
14041;BME280;7095;51.388;6.196;2022-12-07T12:13:05;59715.50;;;-145.32;100.00
14041;BME280;7095;51.388;6.196;2022-12-07T12:16:08;59910.69;;;-145.32;100.00
14041;BME280;7095;51.388;6.196;2022-12-07T12:18:53;60165.66;;;-145.32;100.00
14041;BME280;7095;51.388;6.196;2022-12-07T12:21:28;60506.31;;;-145.32;100.00
14041;BME280;7095;51.388;6.196;2022-12-07T12:24:00;60659.69;;;-145.32;100.00
14041;BME280;7095;51.388;6.196;2022-12-07T12:26:32;59552.19;;;-145.32;100.00
14041;BME280;7095;51.388;6.196;2022-12-07T12:29:03;60213.47;;;-145.32;100.00
14041;BME280;7095;51.388;6.196;2022-12-07T12:31:37;58546.56;;;-145.32;100.00
14041;BME280;7095;51.388;6.196;2022-12-07T12:34:30;59347.06;;;-145.32;100.00
14041;BME280;7095;51.388;6.196;2022-12-07T12:36:59;58273.81;;;-145.32;100.00
14041;BME280;7095;51.388;6.196;2022-12-07T12:39:29;59092.16;;;-145.32;100.00
14041;BME280;7095;51.388;6.196;2022-12-07T12:42:01;58401.22;;;-145.32;100.00
14041;BME280;7095;51.388;6.196;2022-12-07T12:47:56;57569.13;;;-145.32;100.00
14041;BME280;7095;51.388;6.196;2022-12-07T12:50:31;57933.38;;;-145.32;100.00
14041;BME280;7095;51.388;6.196;2022-12-07T12:53:02;57612.91;;;-145.32;100.00
14041;BME280;7095;51.388;6.196;2022-12-07T12:56:14;56639.72;;;-145.32;100.00
14041;BME280;7095;51.388;6.196;2022-12-07T12:59:24;57017.81;;;-145.32;100.00
14041;BME280;7095;51.388;6.196;2022-12-07T13:01:56;57035.72;;;-145.32;100.00
14041;BME280;7095;51.388;6.196;2022-12-07T13:04:53;56259.66;;;-145.32;100.00
14041;BME280;7095;51.388;6.196;2022-12-07T13:07:59;56426.78;;;-145.32;100.00
14041;BME280;7095;51.388;6.196;2022-12-07T13:10:35;56546.19;;;-145.32;100.00
14041;BME280;7095;51.388;6.196;2022-12-07T13:13:31;56838.69;;;-145.32;100.00